Time;durP1;ratioP1;P1;durP2;ratioP2;P2;SDS_P1;SDS_P2;PMS_P1;PMS_P2;Temp;Humidity;BMP_temperature;BMP_pressure;BME280_temperature;BME280_humidity;BME280_pressure;Samples;Min_cycle;Max_cycle;Signal;HPM_P1;HPM_P2
2022/06/15 00:01:15;;;;;;;16.73;9.00;;;;;;;18.38;100.00;100235.31;5108557;28;20070;-30
2022/06/15 00:03:40;;;;;;;14.25;9.32;;;;;;;18.59;99.37;100232.66;5090196;28;20060;-31
2022/06/15 00:06:27;;;;;;;17.70;9.65;;;;;;;19.01;96.22;100245.94;5108580;28;20423;-29
2022/06/15 00:08:55;;;;;;;15.90;9.52;;;;;;;18.83;96.35;100225.66;5089593;28;20549;-29
2022/06/15 00:11:22;;;;;;;;;;;;;;;18.91;95.05;100245.94;5108912;28;20023;-31
2022/06/15 00:13:48;;;;;;;16.17;9.02;;;;;;;18.87;94.99;100245.66;5108218;28;19915;-29
2022/06/15 00:16:15;;;;;;;17.27;8.45;;;;;;;18.53;95.31;100222.91;5108563;28;20059;-31
2022/06/15 00:18:44;;;;;;;16.35;9.38;;;;;;;18.81;94.46;100246.75;5108523;28;20038;-31
2022/06/15 00:21:10;;;;;;;11.95;8.70;;;;;;;18.77;94.18;100229.41;5089983;28;20138;-29
2022/06/15 00:23:36;;;;;;;17.38;9.00;;;;;;;18.90;92.96;100224.59;5108370;28;20031;-33
2022/06/15 00:26:04;;;;;;;12.27;7.97;;;;;;;18.97;92.38;100234.06;5090227;28;20039;-30
2022/06/15 00:28:30;;;;;;;17.85;8.45;;;;;;;18.87;92.59;100226.75;5108570;28;20057;-34
2022/06/15 00:30:55;;;;;;;14.63;8.93;;;;;;;18.72;93.44;100242.94;5090014;28;20103;-34
2022/06/15 00:33:22;;;;;;;18.05;8.00;;;;;;;18.57;94.55;100240.19;5089411;28;20110;-29
2022/06/15 00:35:59;;;;;;;13.43;7.70;;;;;;;18.31;97.10;100242.03;5089483;28;20023;-37
2022/06/15 00:38:32;;;;;;;15.95;8.23;;;;;;;18.07;97.21;100237.91;5108140;28;20813;-31
2022/06/15 00:40:58;;;;;;;13.80;7.57;;;;;;;18.03;97.41;100242.22;5108061;28;20118;-29
2022/06/15 00:43:58;;;;;;;14.68;8.13;;;;;;;17.99;97.43;100241.13;5107706;28;20031;-38
2022/06/15 00:46:24;;;;;;;14.70;7.70;;;;;;;17.88;99.12;100252.97;5102944;28;20130;-34
2022/06/15 00:48:56;;;;;;;10.85;7.88;;;;;;;18.25;96.78;100249.31;5107186;28;20115;-29
2022/06/15 00:51:23;;;;;;;14.13;7.93;;;;;;;18.44;94.59;100225.34;5088970;28;20036;-29
2022/06/15 00:53:49;;;;;;;13.18;7.22;;;;;;;18.23;92.22;100225.28;5107304;28;20130;-28
2022/06/15 00:56:17;;;;;;;15.98;7.82;;;;;;;18.29;93.43;100218.03;5107595;28;20151;-33
2022/06/15 00:58:47;;;;;;;12.50;8.32;;;;;;;18.14;93.93;100216.06;5107393;28;20030;-31
2022/06/15 01:01:13;;;;;;;10.45;6.68;;;;;;;18.10;94.75;100222.28;5088942;28;20045;-33
2022/06/15 01:03:39;;;;;;;14.38;7.35;;;;;;;18.08;93.75;100233.31;5089343;28;20039;-31
2022/06/15 01:06:14;;;;;;;11.43;6.82;;;;;;;17.86;94.85;100228.13;5089106;28;20084;-30
2022/06/15 01:09:04;;;;;;;10.35;6.47;;;;;;;17.90;94.36;100237.31;5107599;28;20023;-28
2022/06/15 01:11:40;;;;;;;8.98;6.53;;;;;;;17.53;95.79;100232.78;5107485;28;20032;-29
2022/06/15 01:14:43;;;;;;;12.55;7.07;;;;;;;17.62;97.04;100235.81;5089169;28;20035;-33
2022/06/15 01:17:54;;;;;;;14.70;8.40;;;;;;;17.78;95.27;100232.09;5088952;28;20448;-32
2022/06/15 01:20:32;;;;;;;16.15;7.53;;;;;;;17.88;93.12;100247.56;5107326;28;20031;-34
2022/06/15 01:23:11;;;;;;;17.35;6.55;;;;;;;17.73;92.87;100239.34;5088454;28;20118;-29
2022/06/15 01:25:45;;;;;;;20.70;7.28;;;;;;;17.66;92.84;100232.31;5088498;28;20039;-33
2022/06/15 01:28:41;;;;;;;18.02;6.55;;;;;;;17.57;93.02;100233.06;5107005;28;20091;-30
2022/06/15 01:31:28;;;;;;;14.07;7.78;;;;;;;17.76;91.76;100233.44;5088175;28;20034;-34
2022/06/15 01:34:01;;;;;;;12.85;7.53;;;;;;;17.57;91.65;100222.28;5088303;28;20027;-32
2022/06/15 01:36:38;;;;;;;11.32;7.47;;;;;;;17.77;91.62;100235.06;5106544;28;20081;-36
2022/06/15 01:39:18;;;;;;;10.80;7.00;;;;;;;17.70;88.79;100224.50;5088360;28;20487;-31
2022/06/15 01:41:52;;;;;;;8.93;7.25;;;;;;;17.84;89.17;100228.38;5088429;28;20642;-34
2022/06/15 01:44:30;;;;;;;9.55;6.80;;;;;;;17.87;89.60;100248.63;5088325;28;20031;-31
2022/06/15 01:46:56;;;;;;;;;;;;;;;17.86;89.52;100244.31;5088589;28;20528;-32
2022/06/15 01:49:29;;;;;;;10.32;7.13;;;;;;;17.72;91.48;100248.53;5106623;28;20439;-31
2022/06/15 01:51:58;;;;;;;9.52;7.10;;;;;;;17.77;90.80;100240.44;5106708;28;20031;-34
2022/06/15 01:54:33;;;;;;;11.40;7.63;;;;;;;17.78;90.44;100244.78;5088058;28;20514;-30
2022/06/15 01:57:01;;;;;;;9.00;6.85;;;;;;;17.49;93.79;100247.88;5106733;28;20028;-30
2022/06/15 01:59:50;;;;;;;10.65;7.20;;;;;;;17.67;92.26;100244.75;5087394;28;20059;-32
2022/06/15 02:02:28;;;;;;;10.43;6.57;;;;;;;17.71;92.28;100255.00;5106359;28;20754;-29
2022/06/15 02:05:27;;;;;;;10.25;6.50;;;;;;;17.73;91.47;100247.44;5087859;28;20060;-30
2022/06/15 02:08:18;;;;;;;12.90;7.13;;;;;;;17.68;88.86;100251.75;5106469;28;20028;-33
2022/06/15 02:11:21;;;;;;;9.50;6.13;;;;;;;17.54;90.80;100255.97;5087887;28;20039;-29
2022/06/15 02:14:15;;;;;;;8.20;6.38;;;;;;;17.60;89.81;100252.22;5062720;28;20130;-31
2022/06/15 02:16:48;;;;;;;9.43;6.45;;;;;;;17.49;89.20;100258.66;5106209;28;20031;-31
2022/06/15 02:19:16;;;;;;;9.45;6.70;;;;;;;17.52;89.72;100257.31;5087742;28;20054;-32
2022/06/15 02:21:45;;;;;;;9.30;6.43;;;;;;;17.37;89.54;100252.63;5087603;28;20468;-32
2022/06/15 02:24:14;;;;;;;9.45;6.43;;;;;;;17.48;87.73;100243.53;5087631;28;20036;-28
2022/06/15 02:26:41;;;;;;;9.10;6.30;;;;;;;17.19;90.15;100249.28;5087724;28;20519;-29
2022/06/15 02:29:17;;;;;;;9.95;7.30;;;;;;;17.13;92.23;100266.47;5087481;28;20024;-33
2022/06/15 02:31:43;;;;;;;9.25;6.55;;;;;;;17.10;92.67;100258.91;5106009;28;20487;-29
2022/06/15 02:34:09;;;;;;;9.30;6.82;;;;;;;17.17;91.58;100262.19;5087707;28;20039;-31
2022/06/15 02:36:35;;;;;;;8.27;6.80;;;;;;;17.11;92.75;100252.44;5087579;28;20034;-30
2022/06/15 02:39:04;;;;;;;12.75;6.90;;;;;;;17.14;91.87;100273.50;5087221;28;20019;-32
2022/06/15 02:41:30;;;;;;;8.85;6.85;;;;;;;17.18;90.99;100261.13;5087470;28;20028;-29
2022/06/15 02:44:00;;;;;;;11.23;7.60;;;;;;;17.40;90.09;100266.38;5105909;28;20032;-33
2022/06/15 02:46:27;;;;;;;11.40;7.05;;;;;;;17.36;89.80;100270.66;5087443;28;20491;-32
2022/06/15 02:48:53;;;;;;;10.35;6.97;;;;;;;17.38;88.70;100270.41;5105658;28;20092;-34
2022/06/15 02:51:34;;;;;;;11.60;7.13;;;;;;;17.44;89.10;100290.97;5086823;28;20504;-33
2022/06/15 02:54:07;;;;;;;10.13;7.28;;;;;;;17.38;88.09;100273.13;5087253;28;20096;-34
2022/06/15 02:56:33;;;;;;;11.40;7.47;;;;;;;17.31;90.12;100292.22;5087408;28;20027;-30
2022/06/15 02:58:59;;;;;;;11.88;7.55;;;;;;;17.13;92.37;100281.84;5087160;28;20111;-30
2022/06/15 03:01:26;;;;;;;10.25;7.57;;;;;;;16.91;93.66;100279.22;5105753;28;20494;-30
2022/06/15 03:03:51;;;;;;;8.90;7.05;;;;;;;17.10;92.91;100290.41;5105795;28;20044;-29
2022/06/15 03:06:20;;;;;;;9.25;7.15;;;;;;;17.17;92.13;100294.53;5087306;28;20519;-31
2022/06/15 03:08:45;;;;;;;12.40;7.68;;;;;;;17.27;91.02;100278.44;5087289;28;20479;-33
2022/06/15 03:11:12;;;;;;;9.75;6.90;;;;;;;17.21;91.29;100289.44;5106423;28;20023;-30
2022/06/15 03:13:38;;;;;;;13.60;6.32;;;;;;;17.10;92.35;100293.94;5091070;28;20032;-31
2022/06/15 03:16:04;;;;;;;11.43;7.25;;;;;;;17.05;92.61;100291.19;5091118;28;20027;-31
2022/06/15 03:18:31;;;;;;;9.18;7.15;;;;;;;16.81;93.71;100279.91;5090794;28;20031;-34
2022/06/15 03:21:02;;;;;;;9.82;7.20;;;;;;;16.84;93.00;100287.50;5090995;28;20043;-33
2022/06/15 03:23:29;;;;;;;12.23;7.50;;;;;;;16.94;94.42;100305.63;5109554;28;20042;-29
2022/06/15 03:25:57;;;;;;;9.25;6.95;;;;;;;16.98;94.03;100312.97;5090821;28;20045;-31
2022/06/15 03:28:23;;;;;;;10.70;6.93;;;;;;;17.26;92.93;100309.16;5090761;28;20038;-29
2022/06/15 03:30:49;;;;;;;12.23;7.90;;;;;;;17.17;91.44;100291.03;5090467;28;20046;-31
2022/06/15 03:33:15;;;;;;;10.20;7.47;;;;;;;17.07;91.95;100294.44;5109150;28;20028;-32
2022/06/15 03:35:42;;;;;;;13.55;7.47;;;;;;;17.30;93.22;100317.53;5108965;28;20035;-36
2022/06/15 03:38:08;;;;;;;20.40;8.05;;;;;;;17.43;92.23;100310.91;5090763;28;20410;-30
2022/06/15 03:40:36;;;;;;;11.48;6.90;;;;;;;17.62;88.95;100322.91;5090612;28;20127;-29
2022/06/15 03:43:02;;;;;;;10.68;6.82;;;;;;;17.40;89.75;100327.59;5109163;28;20095;-28
2022/06/15 03:45:28;;;;;;;8.50;6.65;;;;;;;17.46;90.11;100331.94;5090312;28;20035;-30
2022/06/15 03:47:56;;;;;;;8.98;6.30;;;;;;;17.26;89.86;100314.56;5090621;28;20039;-30
2022/06/15 03:50:23;;;;;;;8.38;6.88;;;;;;;17.51;89.22;100334.69;5090592;28;20024;-30
2022/06/15 03:52:49;;;;;;;8.68;6.40;;;;;;;17.45;88.69;100311.47;5090251;28;20027;-31
2022/06/15 03:55:15;;;;;;;8.73;7.13;;;;;;;17.72;89.64;100327.56;5090119;28;20130;-31
2022/06/15 03:57:40;;;;;;;14.80;7.55;;;;;;;17.64;88.63;100315.38;5108639;28;20034;-29
2022/06/15 04:00:07;;;;;;;8.07;6.07;;;;;;;17.87;88.07;100329.56;5108717;28;20092;-32
2022/06/15 04:02:33;;;;;;;10.45;6.47;;;;;;;17.90;87.34;100339.84;5090478;28;20028;-29
2022/06/15 04:04:58;;;;;;;6.95;5.97;;;;;;;17.87;86.27;100329.56;5109146;28;20070;-29
2022/06/15 04:10:13;;;;;;;10.05;5.47;;;;;;;17.89;85.67;100342.78;5108852;28;20039;-32
2022/06/15 04:12:38;;;;;;;8.65;6.38;;;;;;;18.11;86.63;100346.16;5090009;28;20023;-28
2022/06/15 04:15:05;;;;;;;9.93;6.15;;;;;;;18.07;86.90;100332.38;5108573;28;20046;-31
2022/06/15 04:17:31;;;;;;;12.13;5.82;;;;;;;18.29;86.74;100342.22;5089922;28;20126;-33
2022/06/15 04:22:41;;;;;;;7.30;6.18;;;;;;;18.34;85.40;100323.31;5107641;28;20406;-32
2022/06/15 04:25:06;;;;;;;8.43;5.80;;;;;;;18.39;83.31;100331.44;5107741;28;20031;-31
2022/06/15 04:27:32;;;;;;;7.82;5.85;;;;;;;18.41;83.71;100334.69;5108437;28;20543;-34
2022/06/15 04:29:59;;;;;;;10.02;5.53;;;;;;;18.64;82.89;100352.31;5089763;28;20092;-33
2022/06/15 04:32:24;;;;;;;6.82;5.47;;;;;;;18.60;83.03;100355.81;5089705;28;20032;-30
2022/06/15 04:34:50;;;;;;;9.20;5.38;;;;;;;18.61;83.08;100336.66;5107935;28;20427;-34
2022/06/15 04:37:15;;;;;;;10.50;5.80;;;;;;;18.93;81.39;100361.88;5107809;28;20396;-30
2022/06/15 04:39:41;;;;;;;8.45;5.30;;;;;;;18.99;82.47;100360.81;5107588;28;20483;-31
2022/06/15 04:42:07;;;;;;;6.70;5.05;;;;;;;19.17;79.32;100362.19;5089719;28;20024;-32
2022/06/15 04:44:33;;;;;;;7.50;5.30;;;;;;;19.38;80.26;100357.59;5089265;28;20040;-30
2022/06/15 04:47:01;;;;;;;7.13;4.50;;;;;;;19.36;78.39;100357.88;5107899;28;20031;-29
2022/06/15 04:49:26;;;;;;;9.73;4.93;;;;;;;19.39;75.73;100343.81;5089334;28;20031;-34
2022/06/15 04:51:52;;;;;;;8.10;4.35;;;;;;;19.44;76.20;100367.34;5089388;28;20543;-29
2022/06/15 04:54:18;;;;;;;7.18;4.75;;;;;;;19.62;77.87;100341.66;5107689;28;20042;-30
2022/06/15 04:56:44;;;;;;;8.05;4.60;;;;;;;19.65;74.83;100352.72;5107962;28;20118;-35
2022/06/15 04:59:09;;;;;;;7.10;4.85;;;;;;;19.91;75.81;100366.25;5108030;28;20042;-29
2022/06/15 05:01:35;;;;;;;7.10;4.35;;;;;;;20.21;71.99;100380.81;5089296;28;20403;-33
2022/06/15 05:04:01;;;;;;;8.75;4.72;;;;;;;20.30;72.82;100381.84;5107437;28;20442;-29
2022/06/15 05:06:26;;;;;;;8.10;4.00;;;;;;;20.34;74.42;100380.22;5107289;28;20493;-29
2022/06/15 05:08:51;;;;;;;8.32;4.00;;;;;;;20.44;74.04;100357.69;5107343;28;20181;-32
2022/06/15 05:11:17;;;;;;;5.45;3.63;;;;;;;20.77;67.45;100369.75;5088569;28;20028;-36
2022/06/15 05:13:42;;;;;;;6.90;3.80;;;;;;;20.71;66.04;100373.59;5107212;28;20024;-30
2022/06/15 05:16:08;;;;;;;7.78;3.45;;;;;;;20.86;64.42;100378.09;5107192;28;20019;-30
2022/06/15 05:18:33;;;;;;;8.48;3.65;;;;;;;20.84;66.54;100377.56;5107264;28;20042;-29
2022/06/15 05:21:00;;;;;;;7.28;3.65;;;;;;;20.88;65.97;100370.50;5107037;28;20031;-29
2022/06/15 05:23:26;;;;;;;5.30;3.47;;;;;;;21.05;65.23;100372.84;5088478;28;20694;-31
2022/06/15 05:25:52;;;;;;;7.45;3.55;;;;;;;21.34;61.52;100385.66;5088914;28;20212;-29
2022/06/15 05:28:17;;;;;;;5.78;3.35;;;;;;;21.05;58.67;100389.94;5088667;28;20114;-32
2022/06/15 05:30:43;;;;;;;4.53;3.10;;;;;;;20.80;62.68;100365.66;5107334;28;20114;-34
2022/06/15 05:33:09;;;;;;;6.53;3.47;;;;;;;20.83;64.71;100392.22;5088119;28;20490;-39
2022/06/15 05:35:35;;;;;;;5.97;3.35;;;;;;;20.92;63.71;100389.72;5088398;28;20468;-31
2022/06/15 05:38:01;;;;;;;6.30;3.17;;;;;;;21.09;63.75;100395.59;5106691;28;20024;-30
2022/06/15 05:40:27;;;;;;;9.07;3.20;;;;;;;21.24;63.09;100392.78;5106800;28;20035;-29
2022/06/15 05:42:52;;;;;;;4.97;3.30;;;;;;;21.17;63.89;100392.31;5107039;28;20104;-29
2022/06/15 05:45:18;;;;;;;6.85;3.40;;;;;;;21.48;61.98;100386.69;5106387;28;20028;-29
2022/06/15 05:47:43;;;;;;;7.15;2.78;;;;;;;21.46;58.26;100367.16;5103331;28;20107;-29
2022/06/15 05:50:12;;;;;;;5.72;2.67;;;;;;;21.78;57.38;100391.03;5068121;28;20031;-33
2022/06/15 05:52:38;;;;;;;6.43;2.85;;;;;;;21.93;57.58;100392.78;5086053;28;20036;-32
2022/06/15 05:55:04;;;;;;;5.53;2.75;;;;;;;22.05;57.48;100400.56;5086156;28;20040;-32
2022/06/15 05:57:29;;;;;;;5.90;2.90;;;;;;;21.59;58.43;100393.63;5067916;28;20079;-30
2022/06/15 05:59:56;;;;;;;8.05;3.08;;;;;;;21.35;58.63;100409.81;5086418;28;20507;-31
2022/06/15 06:02:24;;;;;;;3.70;2.58;;;;;;;21.25;57.36;100394.41;5085922;28;20542;-32
2022/06/15 06:04:49;;;;;;;7.55;3.35;;;;;;;21.25;55.96;100391.69;5063880;28;20523;-30
2022/06/15 06:07:21;;;;;;;6.65;3.72;;;;;;;21.33;56.59;100405.75;5064102;28;20742;-30
2022/06/15 06:09:47;;;;;;;5.50;2.78;;;;;;;21.73;57.71;100420.94;5066028;28;20032;-30
2022/06/15 06:12:12;;;;;;;6.07;2.88;;;;;;;21.92;56.19;100417.50;5065800;28;20033;-31
2022/06/15 06:14:38;;;;;;;6.93;2.83;;;;;;;22.05;56.66;100431.22;5064314;28;20044;-34
2022/06/15 06:17:07;;;;;;;6.47;3.25;;;;;;;22.12;56.40;100416.50;5065819;28;20483;-31
2022/06/15 06:19:32;;;;;;;4.90;2.60;;;;;;;22.24;50.96;100431.31;5064037;28;20496;-30
2022/06/15 06:21:58;;;;;;;6.10;2.90;;;;;;;22.27;55.79;100403.59;5065769;28;20040;-39
2022/06/15 06:24:23;;;;;;;5.28;2.83;;;;;;;22.41;51.58;100430.91;5065775;28;20047;-31
2022/06/15 06:26:56;;;;;;;6.00;2.80;;;;;;;22.37;55.64;100421.69;5065684;28;20028;-29
2022/06/15 06:29:21;;;;;;;3.92;2.63;;;;;;;22.58;50.39;100427.69;5063858;28;20062;-32
2022/06/15 06:31:47;;;;;;;5.43;2.75;;;;;;;22.64;53.96;100433.88;5065519;28;20044;-29
2022/06/15 06:34:12;;;;;;;5.35;2.47;;;;;;;22.82;49.61;100435.00;5063164;28;20033;-32
2022/06/15 06:36:41;;;;;;;5.63;2.70;;;;;;;22.76;50.57;100419.84;5065539;28;20856;-34
2022/06/15 06:39:23;;;;;;;4.03;2.60;;;;;;;22.95;51.28;100438.94;5062886;28;20032;-32
2022/06/15 06:41:48;;;;;;;4.40;2.22;;;;;;;22.93;49.05;100430.25;5063894;28;20471;-31
2022/06/15 06:44:14;;;;;;;5.20;2.88;;;;;;;22.89;47.34;100418.34;5064666;28;20617;-37
2022/06/15 06:46:43;;;;;;;5.50;2.70;;;;;;;23.07;50.61;100425.75;5066729;28;20036;-31
2022/06/15 06:49:09;;;;;;;4.28;2.55;;;;;;;23.11;50.44;100424.06;5068168;28;20105;-36
2022/06/15 06:51:37;;;;;;;5.13;2.33;;;;;;;23.01;49.42;100433.16;5068166;28;20830;-31
2022/06/15 06:54:03;;;;;;;4.28;2.40;;;;;;;22.94;48.45;100431.88;5067969;28;20048;-32
2022/06/15 06:56:29;;;;;;;5.88;2.90;;;;;;;22.92;50.26;100428.63;5067976;28;20064;-34
2022/06/15 06:58:54;;;;;;;5.32;2.85;;;;;;;23.26;49.15;100429.25;5069322;28;20108;-35
2022/06/15 07:01:20;;;;;;;4.38;2.63;;;;;;;23.21;48.93;100433.97;5067445;28;20484;-30
2022/06/15 07:03:47;;;;;;;6.07;2.85;;;;;;;23.37;50.28;100429.09;5086762;28;20111;-33
2022/06/15 07:06:13;;;;;;;4.70;2.70;;;;;;;23.36;48.55;100430.22;5091344;28;20035;-30
2022/06/15 07:08:38;;;;;;;6.45;2.60;;;;;;;23.22;47.90;100411.91;5109902;28;20140;-31
2022/06/15 07:11:13;;;;;;;5.65;2.53;;;;;;;23.36;48.21;100416.63;5109467;28;20036;-31
2022/06/15 07:13:40;;;;;;;6.05;2.60;;;;;;;23.59;49.21;100421.13;5090894;28;20023;-30
2022/06/15 07:16:07;;;;;;;3.97;2.72;;;;;;;23.51;48.61;100410.91;5090786;28;20130;-31
2022/06/15 07:18:33;;;;;;;5.22;2.47;;;;;;;23.80;46.92;100421.63;5091085;28;20035;-30
2022/06/15 07:21:04;;;;;;;6.03;2.80;;;;;;;24.04;46.54;100426.91;5109913;28;20036;-30
2022/06/15 07:23:30;;;;;;;9.15;3.28;;;;;;;24.27;48.92;100432.50;5090999;28;20096;-32
2022/06/15 07:25:56;;;;;;;10.68;6.10;;;;;;;24.53;46.57;100426.56;5090848;28;20032;-31
2022/06/15 07:28:21;;;;;;;7.47;3.53;;;;;;;24.62;48.44;100430.19;5109547;28;20066;-32
2022/06/15 07:30:47;;;;;;;4.75;2.90;;;;;;;24.54;47.89;100422.72;5110531;28;20469;-30
2022/06/15 07:33:12;;;;;;;5.00;2.92;;;;;;;24.49;47.77;100423.63;5091671;28;20798;-31
2022/06/15 07:35:38;;;;;;;7.15;2.70;;;;;;;24.63;45.92;100410.00;5110458;28;20039;-29
2022/06/15 07:38:05;;;;;;;6.28;2.65;;;;;;;24.80;46.56;100421.06;5091898;28;20261;-33
2022/06/15 07:40:31;;;;;;;7.60;2.78;;;;;;;24.66;43.18;100436.66;5091701;28;20126;-31
2022/06/15 07:42:56;;;;;;;7.28;3.00;;;;;;;24.37;46.93;100428.75;5109971;28;20030;-30
2022/06/15 07:45:24;;;;;;;6.00;2.60;;;;;;;24.30;44.12;100436.53;5110210;28;20107;-29
2022/06/15 07:50:33;;;;;;;5.38;2.58;;;;;;;24.56;43.92;100434.13;5110343;28;20042;-32
2022/06/15 07:53:01;;;;;;;7.95;2.75;;;;;;;25.00;43.30;100438.13;5110119;28;20024;-34
2022/06/15 07:55:33;;;;;;;6.18;2.97;;;;;;;25.05;45.95;100432.56;5091301;28;20030;-31
2022/06/15 07:58:00;;;;;;;6.70;2.47;;;;;;;25.17;42.92;100411.00;5090220;28;20016;-32
2022/06/15 08:00:26;;;;;;;8.82;3.10;;;;;;;25.20;42.94;100418.56;5091218;28;20027;-31
2022/06/15 08:02:52;;;;;;;5.03;2.67;;;;;;;25.15;42.71;100417.88;5090805;28;20434;-31
2022/06/15 08:05:18;;;;;;;3.92;2.70;;;;;;;25.42;46.18;100414.28;5090763;28;20030;-32
2022/06/15 08:07:45;;;;;;;6.43;2.83;;;;;;;25.68;43.43;100403.50;5090944;28;20110;-30
2022/06/15 08:10:13;;;;;;;7.57;3.00;;;;;;;26.12;43.51;100431.13;5090779;28;20028;-32
2022/06/15 08:12:40;;;;;;;6.30;2.58;;;;;;;25.83;41.79;100418.72;5091108;28;20047;-29
2022/06/15 08:15:07;;;;;;;5.47;2.67;;;;;;;25.59;41.10;100425.31;5090870;28;20031;-34
2022/06/15 08:17:42;;;;;;;5.50;2.67;;;;;;;25.85;41.88;100416.50;5091403;28;20032;-30
2022/06/15 08:20:30;;;;;;;4.53;2.75;;;;;;;25.92;42.73;100418.78;5091025;28;20030;-31
2022/06/15 08:23:01;;;;;;;4.70;2.92;;;;;;;26.05;40.99;100409.69;5109602;28;21001;-30
2022/06/15 08:25:33;;;;;;;6.05;2.72;;;;;;;26.48;42.12;100424.66;5109457;28;20542;-31
2022/06/15 08:27:59;;;;;;;4.53;2.70;;;;;;;26.28;40.89;100423.31;5090958;28;20059;-29
2022/06/15 08:30:26;;;;;;;5.45;2.83;;;;;;;26.39;43.59;100419.94;5109419;28;20123;-33
2022/06/15 08:32:52;;;;;;;4.95;2.58;;;;;;;26.26;41.06;100426.34;5090761;28;20023;-31
2022/06/15 08:35:17;;;;;;;5.07;2.80;;;;;;;26.10;42.34;100427.88;5090810;28;20038;-31
2022/06/15 08:37:43;;;;;;;5.18;2.83;;;;;;;26.21;42.39;100427.28;5090846;28;20024;-29
2022/06/15 08:40:10;;;;;;;6.07;2.78;;;;;;;26.32;42.48;100425.09;5109091;28;20023;-28
2022/06/15 08:42:40;;;;;;;9.23;3.10;;;;;;;26.42;40.57;100413.88;5090598;28;20039;-34
2022/06/15 08:45:39;;;;;;;4.10;2.70;;;;;;;26.78;41.03;100425.72;5108455;28;20138;-35
2022/06/15 08:48:50;;;;;;;6.15;2.88;;;;;;;26.67;40.45;100419.75;5108994;28;20038;-30
2022/06/15 08:51:27;;;;;;;5.60;2.70;;;;;;;26.35;40.34;100413.50;5090192;28;20023;-32
2022/06/15 08:54:09;;;;;;;5.03;2.60;;;;;;;26.61;40.19;100419.09;5108522;28;20036;-31
2022/06/15 08:56:43;;;;;;;6.22;3.25;;;;;;;26.62;42.96;100417.16;5090497;28;20057;-31
2022/06/15 08:59:27;;;;;;;5.07;2.72;;;;;;;26.81;40.99;100425.91;5089966;28;20046;-29
2022/06/15 09:02:09;;;;;;;4.93;2.80;;;;;;;26.61;40.17;100423.75;5108579;28;20032;-33
2022/06/15 09:05:02;;;;;;;4.90;2.42;;;;;;;26.91;39.50;100419.31;5090058;28;20043;-31
2022/06/15 09:07:52;;;;;;;5.22;2.90;;;;;;;27.08;38.36;100424.00;5089935;28;20100;-34
2022/06/15 09:10:39;;;;;;;4.00;2.58;;;;;;;27.69;43.36;100414.97;5089373;28;20371;-30
2022/06/15 09:13:11;;;;;;;;;;;;;;;27.54;42.98;100419.00;5089806;28;20512;-38
2022/06/15 09:15:48;;;;;;;7.72;2.60;;;;;;;27.42;41.79;100422.38;5089678;28;20002;-31
2022/06/15 09:18:38;;;;;;;4.50;2.70;;;;;;;27.60;41.39;100418.53;5108389;28;20024;-30
2022/06/15 09:21:12;;;;;;;5.00;2.28;;;;;;;27.13;40.31;100399.19;5089253;28;20035;-32
2022/06/15 09:23:49;;;;;;;4.97;2.85;;;;;;;26.57;40.53;100398.13;5089679;28;20134;-30
2022/06/15 09:26:24;;;;;;;6.23;2.60;;;;;;;27.08;38.88;100396.63;5089664;28;20028;-29
2022/06/15 09:29:06;;;;;;;4.88;2.45;;;;;;;27.44;37.90;100406.44;5089249;28;20019;-32
2022/06/15 09:32:04;;;;;;;3.13;2.25;;;;;;;27.32;44.18;100411.75;5108074;28;20039;-32
2022/06/15 09:34:40;;;;;;;6.20;2.90;;;;;;;27.39;41.44;100401.94;5107617;28;20051;-33
2022/06/15 09:37:13;;;;;;;4.63;2.50;;;;;;;27.36;39.01;100396.28;5089249;28;20027;-33
2022/06/15 09:39:39;;;;;;;29.58;21.75;;;;;;;28.03;38.12;100408.59;5089009;28;20028;-29
2022/06/15 09:42:43;;;;;;;7.38;3.72;;;;;;;28.30;38.14;100406.53;5089393;28;20537;-29
2022/06/15 09:45:26;;;;;;;9.63;4.30;;;;;;;28.09;36.52;100411.94;5086041;28;20042;-30
2022/06/15 09:48:27;;;;;;;4.03;2.60;;;;;;;28.45;35.72;100400.50;5089243;28;20564;-34
2022/06/15 09:51:25;;;;;;;4.63;2.33;;;;;;;28.43;37.18;100405.50;5074869;28;20039;-30
2022/06/15 09:54:14;;;;;;;3.88;2.53;;;;;;;28.92;36.31;100408.63;5071737;28;20467;-33
2022/06/15 09:56:40;;;;;;;4.53;2.42;;;;;;;28.89;32.30;100405.72;5088102;28;20024;-30
2022/06/15 09:59:14;;;;;;;6.80;2.67;;;;;;;29.01;34.20;100389.31;5106332;28;20453;-29
2022/06/15 10:01:43;;;;;;;4.63;2.28;;;;;;;29.42;34.12;100395.94;5087892;28;20027;-29
2022/06/15 10:04:25;;;;;;;4.20;2.80;;;;;;;29.55;34.22;100394.84;5084413;28;20059;-33
2022/06/15 10:06:54;;;;;;;4.88;2.45;;;;;;;29.76;35.12;100383.00;5084350;28;20036;-30
2022/06/15 10:09:26;;;;;;;5.30;2.45;;;;;;;29.54;33.32;100395.97;5084200;28;20548;-29
2022/06/15 10:15:12;;;;;;;4.35;2.67;;;;;;;29.87;32.16;100402.59;5085566;28;20119;-31
2022/06/15 10:17:44;;;;;;;3.60;2.13;;;;;;;29.83;32.76;100389.56;5085788;28;20039;-40
2022/06/15 10:20:57;;;;;;;7.55;2.50;;;;;;;29.79;34.33;100388.63;5084405;28;20089;-30
2022/06/15 10:23:31;;;;;;;3.08;2.10;;;;;;;30.10;30.98;100391.97;5022507;28;20041;-30
2022/06/15 10:25:57;;;;;;;5.57;2.33;;;;;;;30.18;30.35;100388.31;5078921;28;20093;-31
2022/06/15 10:28:31;;;;;;;3.80;2.15;;;;;;;30.19;31.25;100393.47;5085801;28;20433;-34
2022/06/15 10:31:05;;;;;;;4.30;2.03;;;;;;;29.66;33.31;100392.47;5086028;28;20057;-32
2022/06/15 10:33:44;;;;;;;3.10;2.00;;;;;;;29.91;32.16;100385.09;5085691;28;20035;-32
2022/06/15 10:36:21;;;;;;;3.08;2.03;;;;;;;30.38;31.05;100392.94;5085604;28;20024;-37
2022/06/15 10:38:49;;;;;;;;;;;;;;;30.04;30.59;100389.47;5084994;28;20039;-30
2022/06/15 10:43:59;;;;;;;3.50;2.15;;;;;;;30.63;30.41;100376.41;5085493;28;20039;-34
2022/06/15 10:46:25;;;;;;;2.78;2.03;;;;;;;30.67;30.45;100366.28;5085493;28;20101;-32
2022/06/15 10:48:57;;;;;;;6.65;2.63;;;;;;;30.83;29.57;100382.88;5086073;28;20024;-34
2022/06/15 10:51:33;;;;;;;3.10;2.30;;;;;;;30.83;32.62;100380.94;5085351;28;20024;-31
2022/06/15 10:54:17;;;;;;;4.67;2.57;;;;;;;30.01;33.44;100365.38;5083772;28;20079;-31
2022/06/15 11:02:25;;;;;;;7.18;2.55;;;;;;;30.61;32.02;100364.94;5085532;28;20124;-30
2022/06/15 11:04:56;;;;;;;5.18;2.10;;;;;;;30.67;34.18;100352.53;5083511;28;20485;-32
2022/06/15 11:07:21;;;;;;;6.90;2.33;;;;;;;30.42;29.72;100366.34;5083695;28;20028;-33
2022/06/15 11:10:12;;;;;;;4.15;2.20;;;;;;;30.92;32.04;100363.50;5085606;28;20036;-33
2022/06/15 11:12:48;;;;;;;5.38;2.05;;;;;;;30.97;31.17;100366.78;5085458;28;20058;-29
2022/06/15 11:15:13;;;;;;;3.80;2.35;;;;;;;31.12;31.99;100373.53;5083730;28;20067;-33
2022/06/15 11:18:01;;;;;;;4.05;2.20;;;;;;;31.46;29.47;100363.03;5085285;28;20052;-30
2022/06/15 11:20:42;;;;;;;3.42;1.98;;;;;;;30.99;30.62;100371.94;5085292;28;20388;-31
2022/06/15 11:23:33;;;;;;;4.13;2.28;;;;;;;30.62;30.41;100366.53;5085287;28;20024;-32
2022/06/15 11:26:51;;;;;;;3.03;2.00;;;;;;;30.94;30.27;100364.75;5085415;28;20518;-34
2022/06/15 11:28:52;;;;;;;5.10;2.42;;;;;;;30.52;34.80;100365.03;5084981;28;20032;-35
2022/06/15 11:31:19;;;;;;;4.28;2.10;;;;;;;31.26;29.37;100369.56;5083789;28;20126;-30
2022/06/15 11:33:50;;;;;;;4.80;2.30;;;;;;;31.46;30.20;100352.03;5087065;28;20062;-29
2022/06/15 11:36:31;;;;;;;3.90;2.38;;;;;;;31.19;30.65;100354.44;5087265;28;20603;-34
2022/06/15 11:39:02;;;;;;;3.88;1.90;;;;;;;31.53;27.39;100354.97;5088906;28;20032;-31
2022/06/15 11:41:33;;;;;;;4.03;2.20;;;;;;;31.12;30.75;100353.41;5087432;28;20119;-29
2022/06/15 11:44:00;;;;;;;5.32;2.20;;;;;;;30.74;29.75;100338.97;5087207;28;20020;-29
2022/06/15 11:46:25;;;;;;;3.53;1.77;;;;;;;30.43;29.39;100351.41;5087069;28;20046;-32
2022/06/15 11:49:15;;;;;;;4.30;2.13;;;;;;;30.63;29.64;100355.19;5088386;28;20028;-36
2022/06/15 11:52:10;;;;;;;5.13;2.13;;;;;;;31.52;30.83;100339.59;5088859;28;20036;-35
2022/06/15 11:55:01;;;;;;;4.03;2.20;;;;;;;31.82;30.32;100352.94;5087143;28;20127;-32
2022/06/15 11:57:39;;;;;;;6.25;2.25;;;;;;;31.86;31.00;100359.34;5087101;28;20044;-34
2022/06/15 12:00:45;;;;;;;3.90;2.28;;;;;;;31.91;30.36;100338.97;5087112;28;20051;-30
2022/06/15 12:03:45;;;;;;;3.22;2.10;;;;;;;31.22;27.83;100356.50;5092192;28;20055;-34
2022/06/15 12:06:28;;;;;;;3.58;2.20;;;;;;;31.23;29.47;100341.53;5073841;28;20118;-38